sensor_id;sensor_type;location;lat;lon;timestamp;P1;durP1;ratioP1;P2;durP2;ratioP2
26488;SDS011;14169;43.684;10.484;2023-04-24T00:01:16;12.38;;;6.50;;
26488;SDS011;14169;43.684;10.484;2023-04-24T00:03:42;16.10;;;6.13;;
26488;SDS011;14169;43.684;10.484;2023-04-24T00:06:07;12.57;;;6.68;;
26488;SDS011;14169;43.684;10.484;2023-04-24T00:08:33;14.85;;;6.82;;
26488;SDS011;14169;43.684;10.484;2023-04-24T00:10:59;11.43;;;6.00;;
26488;SDS011;14169;43.684;10.484;2023-04-24T00:13:25;9.60;;;5.35;;
26488;SDS011;14169;43.684;10.484;2023-04-24T00:15:50;8.77;;;5.35;;
26488;SDS011;14169;43.684;10.484;2023-04-24T00:18:16;8.32;;;5.88;;
26488;SDS011;14169;43.684;10.484;2023-04-24T00:20:41;12.70;;;5.95;;
26488;SDS011;14169;43.684;10.484;2023-04-24T00:23:08;8.80;;;5.68;;
26488;SDS011;14169;43.684;10.484;2023-04-24T00:25:34;7.45;;;4.95;;
26488;SDS011;14169;43.684;10.484;2023-04-24T00:27:59;9.55;;;5.93;;
26488;SDS011;14169;43.684;10.484;2023-04-24T00:30:25;9.15;;;5.50;;
26488;SDS011;14169;43.684;10.484;2023-04-24T00:32:50;12.60;;;6.43;;
26488;SDS011;14169;43.684;10.484;2023-04-24T00:35:16;11.27;;;5.38;;
26488;SDS011;14169;43.684;10.484;2023-04-24T00:37:41;7.93;;;4.95;;
26488;SDS011;14169;43.684;10.484;2023-04-24T00:40:07;9.48;;;4.90;;
26488;SDS011;14169;43.684;10.484;2023-04-24T00:42:32;10.30;;;5.18;;
26488;SDS011;14169;43.684;10.484;2023-04-24T00:44:58;8.77;;;4.95;;
26488;SDS011;14169;43.684;10.484;2023-04-24T00:47:25;10.15;;;5.40;;
26488;SDS011;14169;43.684;10.484;2023-04-24T00:49:51;10.23;;;4.70;;
26488;SDS011;14169;43.684;10.484;2023-04-24T00:52:17;8.40;;;5.28;;
26488;SDS011;14169;43.684;10.484;2023-04-24T00:54:45;7.38;;;5.35;;
26488;SDS011;14169;43.684;10.484;2023-04-24T00:57:11;13.82;;;5.45;;
26488;SDS011;14169;43.684;10.484;2023-04-24T00:59:39;15.48;;;4.82;;
26488;SDS011;14169;43.684;10.484;2023-04-24T01:02:06;14.40;;;5.20;;
26488;SDS011;14169;43.684;10.484;2023-04-24T01:04:32;13.50;;;5.45;;
26488;SDS011;14169;43.684;10.484;2023-04-24T01:06:58;8.52;;;5.07;;
26488;SDS011;14169;43.684;10.484;2023-04-24T01:09:23;13.10;;;5.25;;
26488;SDS011;14169;43.684;10.484;2023-04-24T01:11:50;10.65;;;5.20;;
26488;SDS011;14169;43.684;10.484;2023-04-24T01:14:16;12.32;;;5.43;;
26488;SDS011;14169;43.684;10.484;2023-04-24T01:16:41;10.68;;;5.47;;
26488;SDS011;14169;43.684;10.484;2023-04-24T01:19:07;8.35;;;5.15;;
26488;SDS011;14169;43.684;10.484;2023-04-24T01:21:34;11.73;;;7.43;;
26488;SDS011;14169;43.684;10.484;2023-04-24T01:24:02;9.35;;;7.03;;
26488;SDS011;14169;43.684;10.484;2023-04-24T01:26:29;11.25;;;7.43;;
26488;SDS011;14169;43.684;10.484;2023-04-24T01:28:54;13.25;;;6.57;;
26488;SDS011;14169;43.684;10.484;2023-04-24T01:31:20;13.48;;;5.97;;
26488;SDS011;14169;43.684;10.484;2023-04-24T01:33:49;13.48;;;5.45;;
26488;SDS011;14169;43.684;10.484;2023-04-24T01:36:15;9.20;;;6.18;;
26488;SDS011;14169;43.684;10.484;2023-04-24T01:38:41;7.00;;;4.53;;
26488;SDS011;14169;43.684;10.484;2023-04-24T01:41:06;12.65;;;5.38;;
26488;SDS011;14169;43.684;10.484;2023-04-24T01:43:32;8.40;;;4.72;;
26488;SDS011;14169;43.684;10.484;2023-04-24T01:45:57;12.68;;;5.57;;
26488;SDS011;14169;43.684;10.484;2023-04-24T01:48:23;13.07;;;5.25;;
26488;SDS011;14169;43.684;10.484;2023-04-24T01:50:48;10.57;;;4.68;;
26488;SDS011;14169;43.684;10.484;2023-04-24T01:53:14;7.07;;;4.35;;
26488;SDS011;14169;43.684;10.484;2023-04-24T01:55:40;9.13;;;4.70;;
26488;SDS011;14169;43.684;10.484;2023-04-24T01:58:06;8.75;;;4.93;;
26488;SDS011;14169;43.684;10.484;2023-04-24T02:00:32;10.20;;;4.43;;
26488;SDS011;14169;43.684;10.484;2023-04-24T02:02:57;13.00;;;5.95;;
26488;SDS011;14169;43.684;10.484;2023-04-24T02:05:23;8.30;;;4.22;;
26488;SDS011;14169;43.684;10.484;2023-04-24T02:07:48;9.10;;;4.60;;
26488;SDS011;14169;43.684;10.484;2023-04-24T02:10:14;11.13;;;4.72;;
26488;SDS011;14169;43.684;10.484;2023-04-24T02:12:39;10.02;;;4.95;;
26488;SDS011;14169;43.684;10.484;2023-04-24T02:15:05;7.72;;;4.50;;
26488;SDS011;14169;43.684;10.484;2023-04-24T02:17:31;7.43;;;5.78;;
26488;SDS011;14169;43.684;10.484;2023-04-24T02:19:56;8.30;;;4.60;;
26488;SDS011;14169;43.684;10.484;2023-04-24T02:22:22;12.27;;;4.82;;
26488;SDS011;14169;43.684;10.484;2023-04-24T02:24:47;10.68;;;4.75;;
26488;SDS011;14169;43.684;10.484;2023-04-24T02:27:13;11.82;;;5.05;;
26488;SDS011;14169;43.684;10.484;2023-04-24T02:29:38;8.15;;;4.88;;
26488;SDS011;14169;43.684;10.484;2023-04-24T02:32:03;8.57;;;4.65;;
26488;SDS011;14169;43.684;10.484;2023-04-24T02:34:29;12.00;;;5.10;;
26488;SDS011;14169;43.684;10.484;2023-04-24T02:36:55;9.00;;;5.05;;
26488;SDS011;14169;43.684;10.484;2023-04-24T02:39:20;8.05;;;5.13;;
26488;SDS011;14169;43.684;10.484;2023-04-24T02:41:46;15.27;;;6.95;;
26488;SDS011;14169;43.684;10.484;2023-04-24T02:44:11;10.95;;;6.60;;
26488;SDS011;14169;43.684;10.484;2023-04-24T02:46:36;11.02;;;6.82;;
26488;SDS011;14169;43.684;10.484;2023-04-24T02:49:02;18.38;;;6.88;;
26488;SDS011;14169;43.684;10.484;2023-04-24T02:51:27;16.27;;;7.22;;
26488;SDS011;14169;43.684;10.484;2023-04-24T02:53:53;17.92;;;8.43;;
26488;SDS011;14169;43.684;10.484;2023-04-24T02:56:18;19.73;;;10.77;;
26488;SDS011;14169;43.684;10.484;2023-04-24T02:58:44;12.90;;;9.02;;
26488;SDS011;14169;43.684;10.484;2023-04-24T03:01:10;17.15;;;8.63;;
26488;SDS011;14169;43.684;10.484;2023-04-24T03:03:36;21.08;;;8.80;;
26488;SDS011;14169;43.684;10.484;2023-04-24T03:06:02;16.25;;;6.53;;
26488;SDS011;14169;43.684;10.484;2023-04-24T03:08:28;11.88;;;5.90;;
26488;SDS011;14169;43.684;10.484;2023-04-24T03:10:53;14.75;;;6.63;;
26488;SDS011;14169;43.684;10.484;2023-04-24T03:13:18;13.35;;;6.10;;
26488;SDS011;14169;43.684;10.484;2023-04-24T03:15:44;17.50;;;5.50;;
26488;SDS011;14169;43.684;10.484;2023-04-24T03:18:10;15.38;;;5.75;;
26488;SDS011;14169;43.684;10.484;2023-04-24T03:20:35;12.52;;;5.93;;
26488;SDS011;14169;43.684;10.484;2023-04-24T03:23:02;12.35;;;6.45;;
26488;SDS011;14169;43.684;10.484;2023-04-24T03:25:28;7.53;;;4.72;;
26488;SDS011;14169;43.684;10.484;2023-04-24T03:27:53;14.35;;;4.78;;
26488;SDS011;14169;43.684;10.484;2023-04-24T03:30:19;9.93;;;4.38;;
26488;SDS011;14169;43.684;10.484;2023-04-24T03:32:45;18.13;;;5.57;;
26488;SDS011;14169;43.684;10.484;2023-04-24T03:35:10;12.38;;;3.90;;
26488;SDS011;14169;43.684;10.484;2023-04-24T03:37:36;10.07;;;3.95;;
26488;SDS011;14169;43.684;10.484;2023-04-24T03:40:02;10.07;;;4.40;;
26488;SDS011;14169;43.684;10.484;2023-04-24T03:42:27;11.93;;;4.43;;
26488;SDS011;14169;43.684;10.484;2023-04-24T03:44:53;13.65;;;6.15;;
26488;SDS011;14169;43.684;10.484;2023-04-24T03:47:18;20.08;;;4.22;;
26488;SDS011;14169;43.684;10.484;2023-04-24T03:49:43;13.13;;;4.50;;
26488;SDS011;14169;43.684;10.484;2023-04-24T03:52:09;17.60;;;5.18;;
26488;SDS011;14169;43.684;10.484;2023-04-24T03:54:35;15.57;;;5.50;;
26488;SDS011;14169;43.684;10.484;2023-04-24T03:57:00;20.50;;;5.35;;
26488;SDS011;14169;43.684;10.484;2023-04-24T03:59:28;14.57;;;4.40;;
26488;SDS011;14169;43.684;10.484;2023-04-24T04:01:53;8.98;;;4.32;;
26488;SDS011;14169;43.684;10.484;2023-04-24T04:04:18;20.65;;;5.47;;
26488;SDS011;14169;43.684;10.484;2023-04-24T04:06:44;13.45;;;4.55;;
26488;SDS011;14169;43.684;10.484;2023-04-24T04:09:09;8.20;;;3.60;;
26488;SDS011;14169;43.684;10.484;2023-04-24T04:11:35;12.05;;;5.15;;
26488;SDS011;14169;43.684;10.484;2023-04-24T04:14:01;11.95;;;3.25;;
26488;SDS011;14169;43.684;10.484;2023-04-24T04:16:26;12.80;;;3.72;;
26488;SDS011;14169;43.684;10.484;2023-04-24T04:18:52;14.35;;;3.65;;
26488;SDS011;14169;43.684;10.484;2023-04-24T04:21:17;10.77;;;3.70;;
26488;SDS011;14169;43.684;10.484;2023-04-24T04:23:42;15.43;;;4.30;;
26488;SDS011;14169;43.684;10.484;2023-04-24T04:26:08;11.40;;;4.15;;
26488;SDS011;14169;43.684;10.484;2023-04-24T04:28:34;16.58;;;3.97;;
26488;SDS011;14169;43.684;10.484;2023-04-24T04:30:59;16.17;;;3.78;;
26488;SDS011;14169;43.684;10.484;2023-04-24T04:33:26;18.20;;;4.15;;
26488;SDS011;14169;43.684;10.484;2023-04-24T04:35:51;13.05;;;4.72;;
26488;SDS011;14169;43.684;10.484;2023-04-24T04:38:20;13.88;;;3.03;;
26488;SDS011;14169;43.684;10.484;2023-04-24T04:40:46;16.08;;;4.10;;
26488;SDS011;14169;43.684;10.484;2023-04-24T04:43:11;13.70;;;3.10;;
26488;SDS011;14169;43.684;10.484;2023-04-24T04:45:38;12.73;;;4.78;;
26488;SDS011;14169;43.684;10.484;2023-04-24T04:48:05;16.15;;;4.85;;
26488;SDS011;14169;43.684;10.484;2023-04-24T04:50:32;8.48;;;3.53;;
26488;SDS011;14169;43.684;10.484;2023-04-24T04:52:57;7.47;;;3.67;;
26488;SDS011;14169;43.684;10.484;2023-04-24T04:55:23;14.93;;;3.40;;
26488;SDS011;14169;43.684;10.484;2023-04-24T04:57:48;14.68;;;3.35;;
26488;SDS011;14169;43.684;10.484;2023-04-24T05:00:14;9.07;;;3.22;;
26488;SDS011;14169;43.684;10.484;2023-04-24T05:02:40;10.80;;;2.88;;
26488;SDS011;14169;43.684;10.484;2023-04-24T05:05:06;17.40;;;3.97;;
26488;SDS011;14169;43.684;10.484;2023-04-24T05:07:32;9.88;;;2.97;;
26488;SDS011;14169;43.684;10.484;2023-04-24T05:09:57;14.40;;;3.33;;
26488;SDS011;14169;43.684;10.484;2023-04-24T05:12:23;8.50;;;3.45;;
26488;SDS011;14169;43.684;10.484;2023-04-24T05:14:48;19.38;;;3.40;;
26488;SDS011;14169;43.684;10.484;2023-04-24T05:17:14;13.73;;;3.28;;
26488;SDS011;14169;43.684;10.484;2023-04-24T05:19:40;16.60;;;3.30;;
26488;SDS011;14169;43.684;10.484;2023-04-24T05:22:06;9.95;;;2.90;;
26488;SDS011;14169;43.684;10.484;2023-04-24T05:24:35;37.25;;;5.90;;
26488;SDS011;14169;43.684;10.484;2023-04-24T05:27:01;15.80;;;3.50;;
26488;SDS011;14169;43.684;10.484;2023-04-24T05:29:27;17.63;;;4.25;;
26488;SDS011;14169;43.684;10.484;2023-04-24T05:31:55;13.75;;;2.92;;
26488;SDS011;14169;43.684;10.484;2023-04-24T05:34:21;13.15;;;2.83;;
26488;SDS011;14169;43.684;10.484;2023-04-24T05:36:46;19.05;;;3.28;;
26488;SDS011;14169;43.684;10.484;2023-04-24T05:39:12;21.42;;;3.63;;
26488;SDS011;14169;43.684;10.484;2023-04-24T05:41:37;14.32;;;2.90;;
26488;SDS011;14169;43.684;10.484;2023-04-24T05:44:03;14.43;;;2.75;;
26488;SDS011;14169;43.684;10.484;2023-04-24T05:46:28;17.00;;;4.45;;
26488;SDS011;14169;43.684;10.484;2023-04-24T05:48:53;12.07;;;3.42;;
26488;SDS011;14169;43.684;10.484;2023-04-24T05:51:19;10.60;;;2.83;;
26488;SDS011;14169;43.684;10.484;2023-04-24T05:53:45;8.85;;;2.28;;
26488;SDS011;14169;43.684;10.484;2023-04-24T05:56:10;13.98;;;2.97;;
26488;SDS011;14169;43.684;10.484;2023-04-24T05:58:36;13.75;;;2.70;;
26488;SDS011;14169;43.684;10.484;2023-04-24T06:01:02;10.82;;;2.35;;
26488;SDS011;14169;43.684;10.484;2023-04-24T06:03:28;11.57;;;2.60;;
26488;SDS011;14169;43.684;10.484;2023-04-24T06:05:53;13.05;;;2.50;;
26488;SDS011;14169;43.684;10.484;2023-04-24T06:08:19;12.18;;;3.13;;
26488;SDS011;14169;43.684;10.484;2023-04-24T06:10:44;17.85;;;2.92;;
26488;SDS011;14169;43.684;10.484;2023-04-24T06:13:10;18.13;;;3.40;;
26488;SDS011;14169;43.684;10.484;2023-04-24T06:15:36;13.02;;;3.53;;
26488;SDS011;14169;43.684;10.484;2023-04-24T06:18:01;17.17;;;3.17;;
26488;SDS011;14169;43.684;10.484;2023-04-24T06:20:27;16.20;;;2.85;;
26488;SDS011;14169;43.684;10.484;2023-04-24T06:22:52;12.55;;;3.05;;
26488;SDS011;14169;43.684;10.484;2023-04-24T06:25:18;19.92;;;2.58;;
26488;SDS011;14169;43.684;10.484;2023-04-24T06:27:44;22.23;;;3.00;;
26488;SDS011;14169;43.684;10.484;2023-04-24T06:30:09;14.27;;;2.95;;
26488;SDS011;14169;43.684;10.484;2023-04-24T06:32:35;13.20;;;2.00;;
26488;SDS011;14169;43.684;10.484;2023-04-24T06:35:00;13.10;;;2.55;;
26488;SDS011;14169;43.684;10.484;2023-04-24T06:37:25;14.48;;;1.85;;
26488;SDS011;14169;43.684;10.484;2023-04-24T06:39:51;16.35;;;2.67;;
26488;SDS011;14169;43.684;10.484;2023-04-24T06:42:16;10.02;;;1.98;;
26488;SDS011;14169;43.684;10.484;2023-04-24T06:44:42;13.73;;;2.88;;
26488;SDS011;14169;43.684;10.484;2023-04-24T06:47:08;15.57;;;2.63;;
26488;SDS011;14169;43.684;10.484;2023-04-24T06:49:35;17.13;;;2.63;;
26488;SDS011;14169;43.684;10.484;2023-04-24T06:52:01;11.68;;;2.28;;
26488;SDS011;14169;43.684;10.484;2023-04-24T06:54:27;12.45;;;2.92;;
26488;SDS011;14169;43.684;10.484;2023-04-24T06:56:52;11.15;;;2.20;;
26488;SDS011;14169;43.684;10.484;2023-04-24T06:59:17;9.35;;;3.08;;
26488;SDS011;14169;43.684;10.484;2023-04-24T07:01:43;6.55;;;2.47;;
26488;SDS011;14169;43.684;10.484;2023-04-24T07:04:08;14.68;;;2.08;;
26488;SDS011;14169;43.684;10.484;2023-04-24T07:06:34;13.23;;;2.60;;
26488;SDS011;14169;43.684;10.484;2023-04-24T07:09:00;16.38;;;3.22;;
26488;SDS011;14169;43.684;10.484;2023-04-24T07:11:26;17.15;;;2.88;;
26488;SDS011;14169;43.684;10.484;2023-04-24T07:13:54;13.60;;;2.50;;
26488;SDS011;14169;43.684;10.484;2023-04-24T07:16:20;13.13;;;3.03;;
26488;SDS011;14169;43.684;10.484;2023-04-24T07:18:45;15.25;;;2.40;;
26488;SDS011;14169;43.684;10.484;2023-04-24T07:21:11;12.10;;;2.88;;
26488;SDS011;14169;43.684;10.484;2023-04-24T07:23:36;8.13;;;1.60;;
26488;SDS011;14169;43.684;10.484;2023-04-24T07:26:02;11.30;;;1.95;;
26488;SDS011;14169;43.684;10.484;2023-04-24T07:28:28;8.68;;;1.50;;
26488;SDS011;14169;43.684;10.484;2023-04-24T07:30:56;12.85;;;1.73;;
26488;SDS011;14169;43.684;10.484;2023-04-24T07:33:22;10.57;;;2.45;;
26488;SDS011;14169;43.684;10.484;2023-04-24T07:35:47;15.98;;;2.05;;
26488;SDS011;14169;43.684;10.484;2023-04-24T07:38:13;11.73;;;2.33;;
26488;SDS011;14169;43.684;10.484;2023-04-24T07:40:38;6.32;;;1.58;;
26488;SDS011;14169;43.684;10.484;2023-04-24T07:43:04;11.95;;;3.03;;
26488;SDS011;14169;43.684;10.484;2023-04-24T07:45:29;13.40;;;2.15;;
26488;SDS011;14169;43.684;10.484;2023-04-24T07:47:56;11.95;;;2.80;;
26488;SDS011;14169;43.684;10.484;2023-04-24T07:50:22;7.03;;;1.98;;
26488;SDS011;14169;43.684;10.484;2023-04-24T07:52:47;9.55;;;2.13;;
26488;SDS011;14169;43.684;10.484;2023-04-24T07:55:13;11.50;;;1.80;;
26488;SDS011;14169;43.684;10.484;2023-04-24T07:57:39;6.80;;;2.10;;
26488;SDS011;14169;43.684;10.484;2023-04-24T08:00:06;11.00;;;1.70;;
26488;SDS011;14169;43.684;10.484;2023-04-24T08:02:32;11.50;;;1.90;;
26488;SDS011;14169;43.684;10.484;2023-04-24T08:04:57;10.68;;;2.67;;
26488;SDS011;14169;43.684;10.484;2023-04-24T08:07:23;6.75;;;1.83;;
26488;SDS011;14169;43.684;10.484;2023-04-24T08:09:48;6.35;;;2.20;;
26488;SDS011;14169;43.684;10.484;2023-04-24T08:12:14;14.25;;;2.72;;
26488;SDS011;14169;43.684;10.484;2023-04-24T08:14:39;12.05;;;2.67;;
26488;SDS011;14169;43.684;10.484;2023-04-24T08:17:05;10.48;;;3.08;;
26488;SDS011;14169;43.684;10.484;2023-04-24T08:19:30;9.98;;;2.78;;
26488;SDS011;14169;43.684;10.484;2023-04-24T08:21:55;8.60;;;2.22;;
26488;SDS011;14169;43.684;10.484;2023-04-24T08:24:21;11.65;;;2.90;;
26488;SDS011;14169;43.684;10.484;2023-04-24T08:26:47;6.65;;;1.92;;
26488;SDS011;14169;43.684;10.484;2023-04-24T08:29:15;7.82;;;2.03;;
26488;SDS011;14169;43.684;10.484;2023-04-24T08:31:40;13.27;;;2.45;;
26488;SDS011;14169;43.684;10.484;2023-04-24T08:34:06;12.75;;;1.65;;
26488;SDS011;14169;43.684;10.484;2023-04-24T08:36:31;10.65;;;2.33;;
26488;SDS011;14169;43.684;10.484;2023-04-24T08:38:57;12.32;;;2.55;;
26488;SDS011;14169;43.684;10.484;2023-04-24T08:41:22;6.82;;;1.95;;
26488;SDS011;14169;43.684;10.484;2023-04-24T08:43:51;11.30;;;2.53;;
26488;SDS011;14169;43.684;10.484;2023-04-24T08:46:16;22.25;;;2.70;;
26488;SDS011;14169;43.684;10.484;2023-04-24T08:48:44;9.13;;;2.38;;
26488;SDS011;14169;43.684;10.484;2023-04-24T08:51:10;9.50;;;1.60;;
26488;SDS011;14169;43.684;10.484;2023-04-24T08:53:36;11.80;;;1.80;;
26488;SDS011;14169;43.684;10.484;2023-04-24T08:56:02;13.65;;;2.83;;
26488;SDS011;14169;43.684;10.484;2023-04-24T08:58:28;15.52;;;2.70;;
26488;SDS011;14169;43.684;10.484;2023-04-24T09:00:54;19.20;;;4.40;;
26488;SDS011;14169;43.684;10.484;2023-04-24T09:03:20;11.18;;;2.47;;
26488;SDS011;14169;43.684;10.484;2023-04-24T09:05:47;19.85;;;2.83;;
26488;SDS011;14169;43.684;10.484;2023-04-24T09:08:14;11.10;;;2.63;;
26488;SDS011;14169;43.684;10.484;2023-04-24T09:10:42;13.60;;;3.20;;
26488;SDS011;14169;43.684;10.484;2023-04-24T09:13:08;14.70;;;3.00;;
26488;SDS011;14169;43.684;10.484;2023-04-24T09:15:35;15.05;;;3.20;;
26488;SDS011;14169;43.684;10.484;2023-04-24T09:18:01;15.43;;;2.50;;
26488;SDS011;14169;43.684;10.484;2023-04-24T09:20:27;11.32;;;3.05;;
26488;SDS011;14169;43.684;10.484;2023-04-24T09:22:53;9.48;;;2.15;;
26488;SDS011;14169;43.684;10.484;2023-04-24T09:25:24;10.25;;;2.28;;
26488;SDS011;14169;43.684;10.484;2023-04-24T09:27:59;8.93;;;1.63;;
26488;SDS011;14169;43.684;10.484;2023-04-24T09:30:26;9.80;;;1.95;;
26488;SDS011;14169;43.684;10.484;2023-04-24T09:33:12;10.15;;;2.40;;
26488;SDS011;14169;43.684;10.484;2023-04-24T09:35:50;6.18;;;1.92;;
26488;SDS011;14169;43.684;10.484;2023-04-24T09:38:16;11.68;;;1.88;;
26488;SDS011;14169;43.684;10.484;2023-04-24T09:40:42;11.40;;;2.15;;
26488;SDS011;14169;43.684;10.484;2023-04-24T09:43:11;12.82;;;3.08;;
26488;SDS011;14169;43.684;10.484;2023-04-24T09:45:37;8.40;;;2.30;;
26488;SDS011;14169;43.684;10.484;2023-04-24T09:48:04;11.90;;;2.95;;
26488;SDS011;14169;43.684;10.484;2023-04-24T09:50:31;9.25;;;2.15;;
26488;SDS011;14169;43.684;10.484;2023-04-24T09:53:04;13.82;;;2.13;;
26488;SDS011;14169;43.684;10.484;2023-04-24T09:55:33;19.45;;;2.70;;
26488;SDS011;14169;43.684;10.484;2023-04-24T09:58:05;12.02;;;2.72;;
26488;SDS011;14169;43.684;10.484;2023-04-24T10:00:33;10.52;;;2.10;;
26488;SDS011;14169;43.684;10.484;2023-04-24T10:02:59;10.65;;;2.08;;
26488;SDS011;14169;43.684;10.484;2023-04-24T10:05:27;14.18;;;2.78;;
26488;SDS011;14169;43.684;10.484;2023-04-24T10:08:04;13.50;;;2.75;;
26488;SDS011;14169;43.684;10.484;2023-04-24T10:10:38;10.15;;;2.92;;
26488;SDS011;14169;43.684;10.484;2023-04-24T10:13:09;14.20;;;2.30;;
26488;SDS011;14169;43.684;10.484;2023-04-24T10:15:35;10.07;;;2.47;;
26488;SDS011;14169;43.684;10.484;2023-04-24T10:18:03;12.02;;;2.30;;
26488;SDS011;14169;43.684;10.484;2023-04-24T10:20:32;13.38;;;2.35;;
26488;SDS011;14169;43.684;10.484;2023-04-24T10:22:58;11.38;;;1.90;;
26488;SDS011;14169;43.684;10.484;2023-04-24T10:25:26;8.30;;;2.10;;
26488;SDS011;14169;43.684;10.484;2023-04-24T10:27:53;13.65;;;2.55;;
26488;SDS011;14169;43.684;10.484;2023-04-24T10:30:22;14.65;;;2.53;;
26488;SDS011;14169;43.684;10.484;2023-04-24T10:32:48;8.23;;;2.45;;
26488;SDS011;14169;43.684;10.484;2023-04-24T10:35:14;9.02;;;2.28;;
26488;SDS011;14169;43.684;10.484;2023-04-24T10:40:11;10.85;;;2.53;;
26488;SDS011;14169;43.684;10.484;2023-04-24T10:42:43;16.75;;;2.55;;
26488;SDS011;14169;43.684;10.484;2023-04-24T10:45:18;13.70;;;3.10;;
26488;SDS011;14169;43.684;10.484;2023-04-24T10:48:07;14.00;;;3.28;;
26488;SDS011;14169;43.684;10.484;2023-04-24T10:50:42;17.63;;;2.50;;
26488;SDS011;14169;43.684;10.484;2023-04-24T10:53:15;5.43;;;1.80;;
26488;SDS011;14169;43.684;10.484;2023-04-24T10:55:46;6.55;;;1.95;;
26488;SDS011;14169;43.684;10.484;2023-04-24T11:01:03;10.25;;;1.88;;
26488;SDS011;14169;43.684;10.484;2023-04-24T11:03:32;10.10;;;1.55;;
26488;SDS011;14169;43.684;10.484;2023-04-24T11:06:03;9.85;;;2.05;;
26488;SDS011;14169;43.684;10.484;2023-04-24T11:11:13;8.23;;;1.48;;
26488;SDS011;14169;43.684;10.484;2023-04-24T11:18:52;6.85;;;1.55;;
26488;SDS011;14169;43.684;10.484;2023-04-24T11:21:25;4.07;;;1.38;;
26488;SDS011;14169;43.684;10.484;2023-04-24T11:23:56;12.38;;;1.15;;
26488;SDS011;14169;43.684;10.484;2023-04-24T11:26:22;9.18;;;1.40;;
26488;SDS011;14169;43.684;10.484;2023-04-24T11:28:55;8.40;;;1.45;;
26488;SDS011;14169;43.684;10.484;2023-04-24T11:34:14;7.28;;;1.63;;
26488;SDS011;14169;43.684;10.484;2023-04-24T11:36:39;11.57;;;1.90;;
26488;SDS011;14169;43.684;10.484;2023-04-24T11:39:07;9.43;;;2.17;;
26488;SDS011;14169;43.684;10.484;2023-04-24T11:41:33;8.18;;;1.48;;
26488;SDS011;14169;43.684;10.484;2023-04-24T11:44:00;9.50;;;1.23;;
26488;SDS011;14169;43.684;10.484;2023-04-24T11:46:28;8.40;;;2.38;;
26488;SDS011;14169;43.684;10.484;2023-04-24T11:48:55;8.60;;;1.85;;
26488;SDS011;14169;43.684;10.484;2023-04-24T11:51:24;10.20;;;1.65;;
26488;SDS011;14169;43.684;10.484;2023-04-24T11:53:51;9.40;;;2.00;;
26488;SDS011;14169;43.684;10.484;2023-04-24T11:56:23;4.70;;;1.10;;
26488;SDS011;14169;43.684;10.484;2023-04-24T11:58:51;9.82;;;1.80;;
26488;SDS011;14169;43.684;10.484;2023-04-24T12:01:19;7.13;;;1.52;;
26488;SDS011;14169;43.684;10.484;2023-04-24T12:03:49;12.95;;;3.35;;
26488;SDS011;14169;43.684;10.484;2023-04-24T12:06:16;11.75;;;2.67;;
26488;SDS011;14169;43.684;10.484;2023-04-24T12:08:45;9.13;;;2.72;;
26488;SDS011;14169;43.684;10.484;2023-04-24T12:11:11;6.57;;;1.50;;
26488;SDS011;14169;43.684;10.484;2023-04-24T12:13:40;7.68;;;1.70;;
26488;SDS011;14169;43.684;10.484;2023-04-24T12:16:05;16.13;;;2.70;;
26488;SDS011;14169;43.684;10.484;2023-04-24T12:18:31;7.47;;;1.92;;
26488;SDS011;14169;43.684;10.484;2023-04-24T12:21:14;11.65;;;2.22;;
26488;SDS011;14169;43.684;10.484;2023-04-24T12:23:42;9.93;;;1.67;;
26488;SDS011;14169;43.684;10.484;2023-04-24T12:26:09;16.85;;;2.85;;
26488;SDS011;14169;43.684;10.484;2023-04-24T12:28:35;10.63;;;2.30;;
26488;SDS011;14169;43.684;10.484;2023-04-24T12:31:01;18.58;;;3.88;;
26488;SDS011;14169;43.684;10.484;2023-04-24T12:33:27;9.63;;;1.65;;
26488;SDS011;14169;43.684;10.484;2023-04-24T12:35:54;10.65;;;2.22;;
26488;SDS011;14169;43.684;10.484;2023-04-24T12:38:23;11.93;;;2.20;;
26488;SDS011;14169;43.684;10.484;2023-04-24T12:41:09;9.70;;;2.08;;
26488;SDS011;14169;43.684;10.484;2023-04-24T12:43:36;9.18;;;1.88;;
26488;SDS011;14169;43.684;10.484;2023-04-24T12:46:02;10.13;;;2.30;;
26488;SDS011;14169;43.684;10.484;2023-04-24T12:48:28;15.55;;;3.13;;
26488;SDS011;14169;43.684;10.484;2023-04-24T12:50:54;6.88;;;1.70;;
26488;SDS011;14169;43.684;10.484;2023-04-24T12:53:21;12.27;;;3.05;;
26488;SDS011;14169;43.684;10.484;2023-04-24T12:55:47;10.23;;;2.30;;
26488;SDS011;14169;43.684;10.484;2023-04-24T12:58:18;14.75;;;2.72;;
26488;SDS011;14169;43.684;10.484;2023-04-24T13:00:45;11.90;;;2.30;;
26488;SDS011;14169;43.684;10.484;2023-04-24T13:03:11;9.63;;;2.03;;
26488;SDS011;14169;43.684;10.484;2023-04-24T13:05:36;8.82;;;1.70;;
26488;SDS011;14169;43.684;10.484;2023-04-24T13:08:02;11.95;;;2.72;;
26488;SDS011;14169;43.684;10.484;2023-04-24T13:10:27;15.00;;;2.25;;
26488;SDS011;14169;43.684;10.484;2023-04-24T13:12:53;11.82;;;1.83;;
26488;SDS011;14169;43.684;10.484;2023-04-24T13:15:18;13.02;;;1.73;;
26488;SDS011;14169;43.684;10.484;2023-04-24T13:17:43;10.52;;;2.40;;
26488;SDS011;14169;43.684;10.484;2023-04-24T13:20:09;10.52;;;1.40;;
26488;SDS011;14169;43.684;10.484;2023-04-24T13:22:35;9.55;;;2.70;;
26488;SDS011;14169;43.684;10.484;2023-04-24T13:25:01;16.17;;;4.13;;
26488;SDS011;14169;43.684;10.484;2023-04-24T13:27:27;15.38;;;3.00;;
26488;SDS011;14169;43.684;10.484;2023-04-24T13:29:52;14.68;;;1.55;;
26488;SDS011;14169;43.684;10.484;2023-04-24T13:32:18;12.05;;;2.70;;
26488;SDS011;14169;43.684;10.484;2023-04-24T13:34:43;14.57;;;3.92;;
26488;SDS011;14169;43.684;10.484;2023-04-24T13:37:08;15.07;;;2.45;;
26488;SDS011;14169;43.684;10.484;2023-04-24T13:39:34;8.88;;;1.88;;
26488;SDS011;14169;43.684;10.484;2023-04-24T13:42:00;13.95;;;2.33;;
26488;SDS011;14169;43.684;10.484;2023-04-24T13:44:25;8.43;;;1.77;;
26488;SDS011;14169;43.684;10.484;2023-04-24T13:46:52;12.75;;;2.67;;
26488;SDS011;14169;43.684;10.484;2023-04-24T13:49:19;13.77;;;2.72;;
26488;SDS011;14169;43.684;10.484;2023-04-24T13:51:46;10.30;;;2.42;;
26488;SDS011;14169;43.684;10.484;2023-04-24T13:54:13;9.73;;;2.30;;
26488;SDS011;14169;43.684;10.484;2023-04-24T13:56:42;8.63;;;2.28;;
26488;SDS011;14169;43.684;10.484;2023-04-24T13:59:07;11.07;;;2.42;;
26488;SDS011;14169;43.684;10.484;2023-04-24T14:01:33;8.93;;;2.00;;
26488;SDS011;14169;43.684;10.484;2023-04-24T14:03:59;12.63;;;2.40;;
26488;SDS011;14169;43.684;10.484;2023-04-24T14:06:24;11.50;;;1.42;;
26488;SDS011;14169;43.684;10.484;2023-04-24T14:08:51;13.20;;;2.75;;
26488;SDS011;14169;43.684;10.484;2023-04-24T14:11:17;16.80;;;2.75;;
26488;SDS011;14169;43.684;10.484;2023-04-24T14:13:43;11.35;;;1.80;;
26488;SDS011;14169;43.684;10.484;2023-04-24T14:16:08;10.73;;;2.00;;
26488;SDS011;14169;43.684;10.484;2023-04-24T14:18:35;6.45;;;2.67;;
26488;SDS011;14169;43.684;10.484;2023-04-24T14:21:01;19.85;;;2.75;;
26488;SDS011;14169;43.684;10.484;2023-04-24T14:23:27;13.05;;;3.35;;
26488;SDS011;14169;43.684;10.484;2023-04-24T14:25:52;10.77;;;2.63;;
26488;SDS011;14169;43.684;10.484;2023-04-24T14:28:21;12.90;;;2.17;;
26488;SDS011;14169;43.684;10.484;2023-04-24T14:30:49;14.48;;;3.38;;
26488;SDS011;14169;43.684;10.484;2023-04-24T14:33:14;14.90;;;2.47;;
26488;SDS011;14169;43.684;10.484;2023-04-24T14:35:40;17.88;;;2.38;;
26488;SDS011;14169;43.684;10.484;2023-04-24T14:38:09;13.20;;;3.03;;